Time;durP1;ratioP1;P1;durP2;ratioP2;P2;SDS_P1;SDS_P2;PMS_P1;PMS_P2;Temp;Humidity;BMP_temperature;BMP_pressure;BME280_temperature;BME280_humidity;BME280_pressure;Samples;Min_cycle;Max_cycle;Signal;HPM_P1;HPM_P2
2022/09/16 00:01:16;;;;;;;19.83;13.45;;;13.20;99.90;;;;;;5071336;28;20025;-52
2022/09/16 00:03:43;;;;;;;20.95;12.30;;;13.20;99.90;;;;;;5071274;28;20063;-53
2022/09/16 00:06:21;;;;;;;29.60;12.63;;;13.20;99.90;;;;;;5071259;28;20463;-53
2022/09/16 00:08:48;;;;;;;20.83;12.93;;;13.20;99.90;;;;;;5070447;28;20538;-53
2022/09/16 00:11:15;;;;;;;19.25;12.07;;;13.20;99.90;;;;;;5071106;28;20688;-52
2022/09/16 00:13:41;;;;;;;25.42;12.93;;;13.20;99.90;;;;;;5071015;28;20471;-53
2022/09/16 00:16:08;;;;;;;22.60;11.15;;;13.20;99.90;;;;;;5070855;28;20029;-53
2022/09/16 00:18:33;;;;;;;;;;;13.30;99.90;;;;;;5071186;28;20546;-54
2022/09/16 00:20:59;;;;;;;16.23;10.68;;;13.20;99.90;;;;;;5070989;28;19912;-53
2022/09/16 00:23:25;;;;;;;20.52;11.75;;;13.20;99.90;;;;;;5070758;28;20074;-54
2022/09/16 00:25:54;;;;;;;18.25;11.70;;;13.30;99.90;;;;;;5070955;28;20033;-53
2022/09/16 00:28:21;;;;;;;19.05;11.15;;;13.20;99.90;;;;;;5070763;28;20046;-52
2022/09/16 00:30:47;;;;;;;16.52;11.80;;;13.20;99.90;;;;;;5070697;28;20036;-52
2022/09/16 00:33:15;;;;;;;17.25;11.52;;;13.20;99.90;;;;;;5070714;28;20043;-53
2022/09/16 00:35:41;;;;;;;18.10;10.75;;;13.30;99.90;;;;;;5070478;28;20036;-53
2022/09/16 00:38:06;;;;;;;21.73;11.00;;;13.30;99.90;;;;;;5070504;28;20360;-53
2022/09/16 00:40:33;;;;;;;22.38;11.55;;;13.30;99.90;;;;;;5070360;28;20036;-53
2022/09/16 00:42:59;;;;;;;17.73;10.25;;;13.30;99.90;;;;;;5070605;28;20507;-53
2022/09/16 00:45:30;;;;;;;22.15;11.65;;;13.30;99.90;;;;;;5070425;28;20071;-53
2022/09/16 00:48:03;;;;;;;16.08;10.75;;;13.30;99.90;;;;;;5070308;28;20021;-53
2022/09/16 00:50:37;;;;;;;18.90;11.02;;;13.30;99.90;;;;;;5070356;28;20033;-54
2022/09/16 00:53:06;;;;;;;15.13;10.93;;;13.30;99.90;;;;;;5070230;28;20550;-53
2022/09/16 00:55:35;;;;;;;17.00;11.70;;;13.30;99.90;;;;;;5069978;28;20495;-53
2022/09/16 00:58:12;;;;;;;18.58;11.57;;;13.30;99.90;;;;;;5070347;28;20024;-53
2022/09/16 01:00:38;;;;;;;16.33;11.32;;;13.30;99.90;;;;;;5068816;28;20170;-53
2022/09/16 01:03:04;;;;;;;20.52;11.20;;;13.30;99.90;;;;;;5070200;28;20104;-52
2022/09/16 01:05:30;;;;;;;16.38;10.98;;;13.20;99.90;;;;;;5070039;28;20029;-53
2022/09/16 01:07:57;;;;;;;18.52;12.77;;;13.20;99.90;;;;;;5070139;28;20033;-53
2022/09/16 01:10:24;;;;;;;17.40;11.77;;;13.20;99.90;;;;;;5069851;28;20036;-53
2022/09/16 01:13:11;;;;;;;15.95;11.05;;;13.20;99.90;;;;;;5070139;28;20039;-53
2022/09/16 01:15:43;;;;;;;21.55;11.60;;;13.10;99.90;;;;;;5069862;28;20036;-52
2022/09/16 01:18:20;;;;;;;18.13;11.40;;;13.10;99.90;;;;;;5069593;28;20131;-52
2022/09/16 01:21:21;;;;;;;19.50;11.02;;;13.10;99.90;;;;;;5070042;28;20085;-53
2022/09/16 01:24:25;;;;;;;15.32;9.80;;;13.00;99.90;;;;;;5038477;28;20143;-52
2022/09/16 01:27:02;;;;;;;19.80;10.55;;;13.00;99.90;;;;;;5069611;28;20067;-54
2022/09/16 01:29:54;;;;;;;14.63;9.90;;;13.10;99.90;;;;;;5069951;28;20021;-53
2022/09/16 01:32:29;;;;;;;14.20;9.05;;;13.00;99.90;;;;;;5038275;28;20036;-53
2022/09/16 01:35:07;;;;;;;20.15;9.93;;;13.00;99.90;;;;;;5069862;28;20028;-53
2022/09/16 01:37:44;;;;;;;19.07;10.13;;;13.00;99.90;;;;;;5069635;28;20090;-52
2022/09/16 01:40:24;;;;;;;15.40;9.00;;;13.00;99.90;;;;;;5069729;28;20293;-53
2022/09/16 01:43:24;;;;;;;15.32;9.55;;;13.00;99.90;;;;;;5069547;28;20518;-52
2022/09/16 01:46:17;;;;;;;16.05;8.55;;;13.00;99.90;;;;;;5051799;28;20028;-53
2022/09/16 01:48:56;;;;;;;14.73;8.38;;;13.00;99.90;;;;;;5069550;28;20432;-54
2022/09/16 01:51:42;;;;;;;13.63;8.27;;;13.00;99.90;;;;;;5069710;28;20104;-52
2022/09/16 01:54:16;;;;;;;14.10;8.23;;;13.00;99.90;;;;;;5051324;28;20087;-53
2022/09/16 01:56:57;;;;;;;13.20;8.23;;;13.00;99.90;;;;;;5069343;28;20040;-53
2022/09/16 01:59:33;;;;;;;10.75;7.75;;;13.00;99.90;;;;;;5069470;28;20025;-54
2022/09/16 02:02:24;;;;;;;14.98;8.27;;;13.00;99.90;;;;;;5069716;28;20070;-53
2022/09/16 02:04:56;;;;;;;11.02;6.63;;;13.00;99.90;;;;;;5069665;28;20032;-52
2022/09/16 02:07:26;;;;;;;11.38;7.00;;;13.00;99.90;;;;;;5069367;28;20542;-52
2022/09/16 02:09:57;;;;;;;12.73;7.07;;;13.00;99.90;;;;;;5069600;28;20086;-52
2022/09/16 02:12:33;;;;;;;11.80;6.45;;;13.00;99.90;;;;;;5069270;28;20021;-52
2022/09/16 02:15:03;;;;;;;9.88;6.15;;;13.00;99.90;;;;;;5069377;28;20033;-52
2022/09/16 02:17:32;;;;;;;10.27;6.25;;;13.00;99.90;;;;;;5069249;28;20056;-52
2022/09/16 02:20:06;;;;;;;9.82;5.72;;;13.00;99.90;;;;;;5069455;28;20107;-52
2022/09/16 02:22:46;;;;;;;8.35;5.78;;;13.00;99.90;;;;;;5068033;28;20028;-51
2022/09/16 02:25:14;;;;;;;11.05;5.95;;;12.90;99.90;;;;;;5069102;28;20047;-52
2022/09/16 02:27:42;;;;;;;10.70;5.50;;;12.90;99.90;;;;;;5068810;28;20035;-52
2022/09/16 02:30:13;;;;;;;9.23;5.55;;;12.90;99.90;;;;;;5069497;28;20033;-52
2022/09/16 02:32:42;;;;;;;9.82;5.95;;;12.80;99.90;;;;;;5073020;28;20031;-53
2022/09/16 02:35:12;;;;;;;9.90;5.75;;;12.80;99.90;;;;;;5072868;28;20511;-53
2022/09/16 02:37:48;;;;;;;8.98;5.38;;;12.80;99.90;;;;;;5072891;28;20032;-53
2022/09/16 02:40:46;;;;;;;10.90;5.68;;;12.80;99.90;;;;;;5072687;28;20484;-53
2022/09/16 02:43:12;;;;;;;8.20;5.32;;;12.70;99.90;;;;;;5068626;28;20465;-52
2022/09/16 02:45:38;;;;;;;9.95;5.20;;;12.70;99.90;;;;;;5072651;28;20399;-53
2022/09/16 02:48:34;;;;;;;8.48;5.70;;;12.60;99.90;;;;;;5072557;28;20024;-53
2022/09/16 02:51:34;;;;;;;13.27;5.20;;;12.60;99.90;;;;;;5041123;28;20566;-53
2022/09/16 02:54:32;;;;;;;10.23;5.78;;;12.50;99.90;;;;;;5072480;28;20028;-52
2022/09/16 02:56:58;;;;;;;10.50;5.25;;;12.50;99.90;;;;;;5072296;28;20139;-52
2022/09/16 02:59:24;;;;;;;12.30;5.53;;;12.40;99.90;;;;;;5072363;28;20028;-53
2022/09/16 03:01:50;;;;;;;10.75;5.90;;;12.40;99.90;;;;;;5072285;28;20382;-52
2022/09/16 03:04:18;;;;;;;14.55;6.45;;;12.30;99.90;;;;;;5072211;28;20039;-52
2022/09/16 03:06:45;;;;;;;10.35;5.45;;;12.40;99.90;;;;;;5071922;28;20396;-52
2022/09/16 03:09:13;;;;;;;15.30;5.63;;;12.40;99.90;;;;;;5070831;28;20032;-52
2022/09/16 03:11:57;;;;;;;;;;;12.30;99.90;;;;;;5071297;28;20392;-52
2022/09/16 03:14:47;;;;;;;9.07;4.57;;;12.20;99.90;;;;;;5072119;28;20379;-53
2022/09/16 03:17:24;;;;;;;7.70;5.35;;;12.20;99.90;;;;;;5071891;28;20136;-53
2022/09/16 03:19:53;;;;;;;10.95;5.65;;;12.20;99.90;;;;;;5071948;28;20029;-54
2022/09/16 03:22:47;;;;;;;10.85;5.88;;;12.20;99.90;;;;;;5071553;28;20036;-53
2022/09/16 03:25:18;;;;;;;10.23;5.63;;;12.10;99.90;;;;;;5071715;28;20047;-53
2022/09/16 03:27:51;;;;;;;9.55;5.78;;;12.10;99.90;;;;;;5071731;28;20024;-52
2022/09/16 03:30:16;;;;;;;9.10;5.32;;;12.10;99.90;;;;;;5071692;28;20028;-53
2022/09/16 03:32:46;;;;;;;10.77;5.53;;;12.10;99.90;;;;;;5071639;28;20032;-52
2022/09/16 03:35:45;;;;;;;14.85;5.28;;;12.00;99.90;;;;;;5071519;28;20039;-53
2022/09/16 03:38:13;;;;;;;9.75;5.13;;;12.00;99.90;;;;;;5071639;28;20030;-52
2022/09/16 03:40:41;;;;;;;10.32;5.38;;;12.00;99.90;;;;;;5071842;28;20032;-52
2022/09/16 03:43:12;;;;;;;12.93;5.20;;;12.00;99.90;;;;;;5070264;28;20024;-52
2022/09/16 03:45:39;;;;;;;8.93;5.40;;;12.00;99.90;;;;;;5071643;28;20049;-54
2022/09/16 03:48:05;;;;;;;;;;;11.90;99.90;;;;;;5071987;28;20054;-54
2022/09/16 03:50:31;;;;;;;11.23;5.05;;;11.90;99.90;;;;;;5071479;28;19904;-54
2022/09/16 03:52:57;;;;;;;10.35;5.47;;;11.90;99.90;;;;;;5071648;28;20170;-54
2022/09/16 03:55:22;;;;;;;10.48;4.88;;;11.90;99.90;;;;;;5069727;28;20119;-54
2022/09/16 03:57:48;;;;;;;9.93;5.28;;;11.80;99.90;;;;;;5071117;28;20032;-52
2022/09/16 04:00:14;;;;;;;11.82;5.57;;;11.80;99.90;;;;;;5071449;28;20502;-52
2022/09/16 04:02:40;;;;;;;10.40;5.22;;;11.70;99.90;;;;;;5071262;28;20025;-52
2022/09/16 04:05:07;;;;;;;10.13;4.60;;;11.70;99.90;;;;;;5071062;28;20036;-52
2022/09/16 04:07:33;;;;;;;9.45;4.95;;;11.70;99.90;;;;;;5070997;28;20021;-52
2022/09/16 04:10:00;;;;;;;10.70;5.32;;;11.70;99.90;;;;;;5071213;28;20043;-52
2022/09/16 04:12:26;;;;;;;15.20;5.53;;;11.70;99.90;;;;;;5071089;28;20029;-53
2022/09/16 04:14:51;;;;;;;9.55;5.28;;;11.80;99.90;;;;;;5071020;28;20654;-52
2022/09/16 04:17:17;;;;;;;11.75;5.38;;;11.70;99.90;;;;;;5070788;28;20119;-53
2022/09/16 04:19:43;;;;;;;7.43;4.80;;;11.80;99.90;;;;;;5071178;28;20111;-52
2022/09/16 04:22:08;;;;;;;11.10;5.05;;;11.70;99.90;;;;;;5071049;28;20021;-53
2022/09/16 04:24:34;;;;;;;6.82;4.68;;;11.70;99.90;;;;;;5070953;28;20514;-55
2022/09/16 04:27:00;;;;;;;10.90;4.47;;;11.80;99.90;;;;;;5070553;28;20418;-54
2022/09/16 04:29:26;;;;;;;15.10;5.65;;;11.80;99.90;;;;;;5070812;28;20032;-54
2022/09/16 04:31:53;;;;;;;10.40;5.38;;;11.80;99.90;;;;;;5070708;28;20017;-54
2022/09/16 04:34:18;;;;;;;12.57;5.30;;;11.80;99.90;;;;;;5070499;28;20042;-54
2022/09/16 04:36:44;;;;;;;9.85;5.30;;;11.80;99.90;;;;;;5070783;28;20029;-53
2022/09/16 04:39:11;;;;;;;8.27;4.88;;;11.80;99.90;;;;;;5070411;28;20107;-54
2022/09/16 04:41:37;;;;;;;10.70;4.97;;;11.80;99.90;;;;;;5070460;28;20475;-55
2022/09/16 04:44:03;;;;;;;11.38;5.25;;;11.90;99.90;;;;;;5070328;28;20653;-54
2022/09/16 04:46:31;;;;;;;10.10;5.70;;;11.90;99.90;;;;;;5064534;28;20043;-54
2022/09/16 04:48:57;;;;;;;;;;;11.90;99.90;;;;;;5059177;28;20028;-54
2022/09/16 04:51:27;;;;;;;13.73;5.40;;;11.90;99.90;;;;;;5058528;28;19908;-53
2022/09/16 04:53:53;;;;;;;16.58;5.82;;;11.80;99.90;;;;;;5064323;28;20464;-54
2022/09/16 04:56:22;;;;;;;12.55;6.85;;;11.80;99.90;;;;;;5057509;28;20032;-53
2022/09/16 04:58:57;;;;;;;15.90;7.47;;;11.70;99.90;;;;;;5060096;28;20038;-54
2022/09/16 05:01:26;;;;;;;13.38;7.22;;;11.70;99.90;;;;;;5059877;28;20540;-54
2022/09/16 05:03:54;;;;;;;17.48;8.70;;;11.80;99.90;;;;;;5058245;28;20029;-54
2022/09/16 05:06:22;;;;;;;19.50;8.90;;;11.70;99.90;;;;;;5063456;28;20024;-54
2022/09/16 05:08:50;;;;;;;13.82;8.80;;;11.70;99.90;;;;;;5069574;28;20020;-54
2022/09/16 05:11:17;;;;;;;;;;;11.80;99.90;;;;;;5070469;28;20063;-54
2022/09/16 05:13:42;;;;;;;16.45;9.15;;;11.80;99.90;;;;;;5069861;28;20256;-54
2022/09/16 05:16:14;;;;;;;12.35;8.90;;;11.80;99.90;;;;;;5069770;28;20486;-54
2022/09/16 05:18:42;;;;;;;14.90;10.07;;;11.80;99.90;;;;;;5069694;28;20106;-54
2022/09/16 05:21:10;;;;;;;16.30;10.80;;;11.80;99.90;;;;;;5068553;28;20024;-53
2022/09/16 05:23:36;;;;;;;16.52;9.52;;;11.80;99.90;;;;;;5067851;28;20035;-55
2022/09/16 05:26:08;;;;;;;18.02;10.15;;;11.90;99.90;;;;;;5068048;28;20032;-54
2022/09/16 05:28:34;;;;;;;17.58;8.77;;;11.90;99.90;;;;;;5068362;28;20024;-54
2022/09/16 05:31:14;;;;;;;17.40;10.07;;;11.90;99.90;;;;;;5069269;28;20036;-54
2022/09/16 05:33:42;;;;;;;16.15;10.43;;;12.00;99.90;;;;;;5069800;28;20469;-55
2022/09/16 05:36:13;;;;;;;17.88;11.38;;;12.00;99.90;;;;;;5069820;28;20025;-53
2022/09/16 05:38:39;;;;;;;17.73;11.13;;;12.00;99.90;;;;;;5068766;28;20121;-53
2022/09/16 05:41:05;;;;;;;16.67;11.18;;;12.10;99.90;;;;;;5068288;28;20564;-53
2022/09/16 05:43:32;;;;;;;19.75;11.40;;;12.10;99.90;;;;;;5069144;28;20016;-54
2022/09/16 05:45:58;;;;;;;20.33;12.55;;;12.10;99.90;;;;;;5069118;28;20028;-53
2022/09/16 05:48:25;;;;;;;23.60;11.93;;;12.20;99.90;;;;;;5069044;28;20028;-54
2022/09/16 05:50:51;;;;;;;19.90;13.27;;;12.30;99.90;;;;;;5067804;28;20024;-53
2022/09/16 05:53:17;;;;;;;19.40;12.93;;;12.30;99.90;;;;;;5069196;28;20277;-53
2022/09/16 05:56:03;;;;;;;19.23;13.30;;;12.40;99.90;;;;;;5069355;28;20029;-53
2022/09/16 05:58:30;;;;;;;20.65;13.93;;;12.50;99.90;;;;;;5069581;28;20094;-53
2022/09/16 06:01:01;;;;;;;22.08;13.27;;;12.50;99.90;;;;;;5069512;28;20532;-55
2022/09/16 06:03:27;;;;;;;19.08;13.05;;;12.60;99.90;;;;;;5069210;28;20040;-53
2022/09/16 06:06:19;;;;;;;20.30;13.10;;;12.70;99.90;;;;;;5070927;28;20147;-53
2022/09/16 06:08:45;;;;;;;20.63;11.15;;;12.80;99.90;;;;;;5072833;28;20033;-53
2022/09/16 06:11:11;;;;;;;16.30;10.70;;;12.80;99.90;;;;;;5073473;28;20568;-53
2022/09/16 06:13:38;;;;;;;17.15;9.90;;;12.80;99.90;;;;;;5073299;28;20025;-53
2022/09/16 06:16:05;;;;;;;17.90;9.75;;;12.80;99.90;;;;;;5073255;28;20682;-53
2022/09/16 06:18:32;;;;;;;14.70;9.57;;;12.80;99.90;;;;;;5073275;28;20059;-53
2022/09/16 06:21:01;;;;;;;16.35;10.00;;;12.80;99.90;;;;;;5073195;28;20035;-53
2022/09/16 06:23:26;;;;;;;27.85;11.68;;;12.80;99.90;;;;;;5072930;28;20047;-51
2022/09/16 06:26:12;;;;;;;20.77;10.38;;;12.80;99.90;;;;;;5073265;28;20032;-54
2022/09/16 06:28:38;;;;;;;18.83;10.40;;;12.90;99.90;;;;;;5073063;28;20025;-54
2022/09/16 06:31:13;;;;;;;22.38;10.57;;;12.90;99.90;;;;;;5073145;28;20033;-53
2022/09/16 06:33:39;;;;;;;16.85;9.32;;;13.00;99.90;;;;;;5072929;28;20116;-54
2022/09/16 06:36:07;;;;;;;18.17;10.18;;;13.00;99.90;;;;;;5073134;28;20120;-54
2022/09/16 06:38:33;;;;;;;17.63;11.02;;;13.00;99.90;;;;;;5072872;28;20031;-54
2022/09/16 06:41:00;;;;;;;16.80;10.70;;;13.00;99.90;;;;;;5071513;28;20139;-53
2022/09/16 06:43:26;;;;;;;15.80;10.27;;;13.00;99.90;;;;;;5072758;28;20645;-53
2022/09/16 06:46:15;;;;;;;20.40;11.05;;;13.00;99.90;;;;;;5072716;28;20028;-53
2022/09/16 06:48:43;;;;;;;13.95;9.90;;;13.00;99.90;;;;;;5072532;28;20059;-53
2022/09/16 06:51:17;;;;;;;19.80;10.93;;;13.00;99.90;;;;;;5054624;28;20033;-54
2022/09/16 06:53:44;;;;;;;15.73;10.80;;;13.00;99.90;;;;;;5072557;28;20029;-54
2022/09/16 06:56:15;;;;;;;15.43;10.93;;;13.00;99.90;;;;;;5072343;28;20476;-53
2022/09/16 06:58:43;;;;;;;22.08;11.55;;;13.00;99.90;;;;;;5072736;28;20323;-53
2022/09/16 07:01:09;;;;;;;;;;;13.00;99.90;;;;;;5072766;28;20016;-53
2022/09/16 07:03:47;;;;;;;17.27;10.10;;;13.10;99.90;;;;;;5072293;28;19916;-53
2022/09/16 07:06:14;;;;;;;17.73;11.25;;;13.10;99.90;;;;;;5072316;28;20056;-53
2022/09/16 07:08:41;;;;;;;14.57;10.88;;;13.20;99.90;;;;;;5072378;28;20024;-54
2022/09/16 07:11:09;;;;;;;17.27;10.85;;;13.20;99.90;;;;;;5072369;28;20048;-53
2022/09/16 07:13:35;;;;;;;14.38;10.73;;;13.20;99.90;;;;;;5072206;28;20040;-53
2022/09/16 07:16:04;;;;;;;19.20;11.02;;;13.30;99.90;;;;;;5072116;28;20483;-53
2022/09/16 07:18:30;;;;;;;20.13;10.77;;;13.30;99.90;;;;;;5072048;28;20128;-54
2022/09/16 07:21:03;;;;;;;17.85;11.65;;;13.30;99.90;;;;;;5072240;28;20102;-53
2022/09/16 07:23:33;;;;;;;17.23;10.38;;;13.40;99.90;;;;;;5072053;28;20034;-53
2022/09/16 07:26:20;;;;;;;14.85;11.30;;;13.40;99.90;;;;;;5071923;28;20082;-53
2022/09/16 07:28:48;;;;;;;18.13;11.38;;;13.40;99.90;;;;;;5071982;28;20027;-53
2022/09/16 07:31:19;;;;;;;22.27;11.40;;;13.40;99.90;;;;;;5072048;28;20712;-53
2022/09/16 07:33:47;;;;;;;17.30;12.00;;;13.40;99.90;;;;;;5071806;28;20029;-53
2022/09/16 07:36:18;;;;;;;25.35;12.52;;;13.50;99.90;;;;;;5071800;28;20025;-53
2022/09/16 07:38:43;;;;;;;23.83;13.45;;;13.50;99.90;;;;;;5071727;28;20056;-54
2022/09/16 07:41:21;;;;;;;23.33;12.90;;;13.60;99.90;;;;;;5071995;28;20510;-54
2022/09/16 07:43:47;;;;;;;19.70;12.15;;;13.60;99.90;;;;;;5071899;28;20040;-54
2022/09/16 07:46:17;;;;;;;18.80;11.23;;;13.60;99.90;;;;;;5071502;28;20036;-53
2022/09/16 07:48:44;;;;;;;21.17;10.68;;;13.60;99.90;;;;;;5071477;28;20491;-53
2022/09/16 07:51:13;;;;;;;15.48;11.80;;;13.60;99.90;;;;;;5071485;28;20032;-53
2022/09/16 07:53:39;;;;;;;15.30;10.38;;;13.70;99.90;;;;;;5066827;28;21013;-53
2022/09/16 07:56:09;;;;;;;15.95;10.65;;;13.70;99.90;;;;;;5065449;28;20054;-54
2022/09/16 07:58:35;;;;;;;18.83;9.98;;;13.80;99.90;;;;;;5055583;28;20048;-53
2022/09/16 08:01:01;;;;;;;17.37;9.70;;;13.90;99.90;;;;;;5060168;28;20013;-53
2022/09/16 08:03:28;;;;;;;20.75;11.48;;;13.90;99.90;;;;;;5066156;28;20812;-53
2022/09/16 08:06:02;;;;;;;13.98;9.35;;;14.00;99.90;;;;;;5058073;28;20037;-53
2022/09/16 08:08:30;;;;;;;13.82;8.20;;;14.10;99.90;;;;;;5060092;28;20066;-53
2022/09/16 08:10:56;;;;;;;11.95;7.95;;;14.00;99.90;;;;;;5060036;28;20020;-54
2022/09/16 08:13:23;;;;;;;17.02;8.63;;;13.90;99.90;;;;;;5061583;28;20028;-53
2022/09/16 08:15:48;;;;;;;11.77;8.10;;;13.90;99.90;;;;;;5060240;28;20112;-54
2022/09/16 08:18:14;;;;;;;14.48;7.95;;;14.00;99.90;;;;;;5060101;28;20139;-53
2022/09/16 08:20:40;;;;;;;13.25;6.55;;;14.10;99.90;;;;;;5061732;28;20381;-53
2022/09/16 08:23:06;;;;;;;14.98;6.50;;;14.20;99.90;;;;;;5060100;28;20470;-53
2022/09/16 08:25:32;;;;;;;14.57;7.03;;;14.10;99.90;;;;;;5060473;28;20391;-54
2022/09/16 08:27:57;;;;;;;11.20;6.38;;;14.20;99.90;;;;;;5060238;28;20032;-54
2022/09/16 08:30:23;;;;;;;11.30;6.82;;;14.30;99.90;;;;;;5059499;28;20036;-53
2022/09/16 08:32:58;;;;;;;8.77;5.43;;;14.60;99.90;;;;;;5060658;28;20025;-54
2022/09/16 08:35:24;;;;;;;9.18;5.40;;;15.20;99.90;;;;;;5061134;28;20104;-53
2022/09/16 08:37:50;;;;;;;11.20;5.13;;;15.40;99.90;;;;;;5055796;28;20083;-54
2022/09/16 08:40:22;;;;;;;10.25;5.97;;;15.50;99.90;;;;;;5059284;28;20444;-54
2022/09/16 08:42:57;;;;;;;15.73;7.95;;;15.60;99.90;;;;;;5060715;28;20036;-53
2022/09/16 08:45:40;;;;;;;14.20;7.47;;;15.80;99.90;;;;;;5059960;28;20326;-53
2022/09/16 08:48:22;;;;;;;9.85;5.13;;;16.00;99.90;;;;;;5060889;28;20104;-54
2022/09/16 08:50:50;;;;;;;8.88;6.45;;;16.10;99.90;;;;;;5050571;28;20039;-54
2022/09/16 08:53:24;;;;;;;;;;;16.10;99.90;;;;;;5058523;28;20109;-54
2022/09/16 08:55:51;;;;;;;9.57;4.90;;;16.10;99.90;;;;;;5058373;28;21177;-54
2022/09/16 08:58:20;;;;;;;10.07;5.25;;;15.30;99.90;;;;;;5061078;28;20102;-54
2022/09/16 09:00:52;;;;;;;7.60;4.80;;;15.30;99.90;;;;;;5057829;28;20035;-54
2022/09/16 09:03:42;;;;;;;8.20;5.03;;;15.10;99.90;;;;;;5060141;28;20033;-53
2022/09/16 09:06:46;;;;;;;9.93;4.43;;;15.30;99.90;;;;;;5064756;28;20040;-54
2022/09/16 09:09:18;;;;;;;10.00;4.20;;;15.40;99.90;;;;;;5069308;28;20111;-54
2022/09/16 09:12:11;;;;;;;11.48;5.47;;;15.50;99.90;;;;;;5056621;28;20031;-55
2022/09/16 09:14:42;;;;;;;10.02;6.15;;;15.60;99.90;;;;;;5049816;28;20024;-54
2022/09/16 09:17:13;;;;;;;9.30;6.00;;;15.60;99.90;;;;;;5050049;28;20053;-54
2022/09/16 09:20:17;;;;;;;9.63;5.57;;;15.50;99.90;;;;;;5049799;28;20060;-54
2022/09/16 09:22:57;;;;;;;6.90;5.10;;;15.40;99.90;;;;;;5050265;28;20021;-54
2022/09/16 09:26:05;;;;;;;10.18;5.68;;;15.30;99.90;;;;;;5050053;28;20052;-54
2022/09/16 09:28:46;;;;;;;7.72;4.80;;;15.20;99.90;;;;;;5047125;28;20033;-54
2022/09/16 09:31:36;;;;;;;13.07;5.45;;;15.20;99.90;;;;;;5047798;28;20409;-53
2022/09/16 09:34:48;;;;;;;8.65;5.40;;;15.20;99.90;;;;;;5049849;28;20625;-54
2022/09/16 09:37:48;;;;;;;9.65;5.47;;;15.20;99.90;;;;;;5013053;28;20060;-53
2022/09/16 09:40:20;;;;;;;5.60;4.22;;;15.20;99.90;;;;;;5048372;28;20087;-53
2022/09/16 09:43:03;;;;;;;6.20;4.35;;;15.40;99.90;;;;;;5047941;28;20032;-54
2022/09/16 09:45:35;;;;;;;9.02;4.57;;;15.40;99.90;;;;;;5048095;28;20037;-53
2022/09/16 09:48:19;;;;;;;7.60;4.28;;;15.50;99.90;;;;;;5047594;28;20043;-53
2022/09/16 09:50:46;;;;;;;6.90;4.95;;;15.90;99.90;;;;;;5048264;28;20064;-53
2022/09/16 09:53:31;;;;;;;7.85;4.80;;;15.90;99.90;;;;;;5048213;28;20028;-53
2022/09/16 09:56:07;;;;;;;8.05;4.93;;;16.00;99.90;;;;;;5048745;28;20094;-53
2022/09/16 09:58:39;;;;;;;6.35;4.15;;;16.00;99.90;;;;;;5049238;28;20080;-53
2022/09/16 10:01:06;;;;;;;6.68;4.05;;;16.00;99.90;;;;;;5049261;28;20429;-54
2022/09/16 10:03:31;;;;;;;10.48;4.57;;;16.10;99.90;;;;;;5049418;28;20029;-54
2022/09/16 10:05:57;;;;;;;7.22;4.35;;;16.00;99.90;;;;;;5049202;28;20079;-53
2022/09/16 10:08:34;;;;;;;7.57;4.18;;;16.00;99.90;;;;;;5049325;28;20021;-53
2022/09/16 10:11:02;;;;;;;7.28;4.13;;;16.00;99.90;;;;;;5049544;28;20032;-53
2022/09/16 10:13:29;;;;;;;9.50;5.25;;;16.00;99.90;;;;;;5049599;28;20025;-54
2022/09/16 10:16:09;;;;;;;;;;;15.90;99.90;;;;;;5050035;28;20053;-53
2022/09/16 10:18:35;;;;;;;6.50;3.60;;;15.80;99.90;;;;;;5049320;28;19928;-53
2022/09/16 10:21:09;;;;;;;9.82;3.97;;;15.70;99.90;;;;;;5049616;28;20345;-53
2022/09/16 10:23:35;;;;;;;8.32;3.65;;;15.50;99.90;;;;;;5049620;28;20036;-53
2022/09/16 10:26:18;;;;;;;8.18;4.00;;;15.40;99.90;;;;;;5049596;28;20028;-52
2022/09/16 10:29:00;;;;;;;7.90;3.97;;;15.20;99.90;;;;;;5049492;28;20395;-55
2022/09/16 10:31:31;;;;;;;4.53;3.08;;;15.20;99.90;;;;;;5049321;28;20029;-52
2022/09/16 10:33:58;;;;;;;4.63;3.42;;;15.20;99.90;;;;;;5049364;28;20055;-54
2022/09/16 10:36:28;;;;;;;5.93;3.85;;;15.30;99.90;;;;;;5049328;28;20033;-54
2022/09/16 10:38:56;;;;;;;5.90;3.63;;;15.70;99.90;;;;;;5049292;28;20044;-53
2022/09/16 10:41:39;;;;;;;7.85;3.70;;;16.00;99.90;;;;;;5049176;28;20032;-53
2022/09/16 10:44:20;;;;;;;5.80;3.70;;;16.20;99.90;;;;;;5048981;28;20480;-53
2022/09/16 10:46:51;;;;;;;7.82;3.50;;;16.30;99.90;;;;;;5049333;28;20449;-53
2022/09/16 10:49:22;;;;;;;7.13;4.30;;;16.30;99.90;;;;;;5049183;28;20024;-53
2022/09/16 10:51:47;;;;;;;5.25;3.33;;;16.30;99.90;;;;;;5050676;28;20029;-54
2022/09/16 10:54:27;;;;;;;5.32;3.55;;;17.00;99.90;;;;;;5052853;28;20484;-54
2022/09/16 10:56:53;;;;;;;5.88;3.35;;;17.30;99.90;;;;;;5052801;28;20021;-53
2022/09/16 10:59:19;;;;;;;7.72;2.95;;;17.60;99.90;;;;;;5060468;28;20115;-51
2022/09/16 11:02:03;;;;;;;6.72;3.22;;;17.30;99.90;;;;;;5058542;28;20032;-53
2022/09/16 11:04:48;;;;;;;7.75;3.25;;;16.80;99.90;;;;;;5061339;28;20025;-52
2022/09/16 11:07:41;;;;;;;11.68;4.28;;;16.40;99.90;;;;;;5070728;28;20124;-53
2022/09/16 11:10:34;;;;;;;3.40;2.00;;;16.80;99.90;;;;;;5072640;28;20029;-54
2022/09/16 11:13:32;;;;;;;2.75;1.65;;;16.90;99.90;;;;;;5054471;28;20029;-54
2022/09/16 11:16:14;;;;;;;9.05;1.80;;;17.50;99.90;;;;;;5072500;28;20029;-54
2022/09/16 11:18:53;;;;;;;4.28;1.95;;;17.50;99.90;;;;;;5072378;28;20109;-53
2022/09/16 11:21:32;;;;;;;3.85;2.42;;;17.70;99.90;;;;;;5072101;28;20032;-53
2022/09/16 11:24:16;;;;;;;3.25;2.10;;;17.40;99.90;;;;;;5072022;28;20089;-53
2022/09/16 11:26:50;;;;;;;7.03;2.17;;;17.40;99.90;;;;;;5072471;28;20107;-53
2022/09/16 11:29:44;;;;;;;3.88;1.63;;;17.10;99.90;;;;;;5072101;28;20024;-53
2022/09/16 11:32:24;;;;;;;6.03;1.88;;;17.00;99.90;;;;;;5072087;28;20043;-52
2022/09/16 11:35:27;;;;;;;5.75;3.10;;;17.00;99.90;;;;;;5072192;28;20531;-53
2022/09/16 11:38:24;;;;;;;5.88;2.60;;;17.00;99.90;;;;;;5072137;28;20038;-52
2022/09/16 11:41:05;;;;;;;5.18;2.28;;;16.80;99.90;;;;;;5070808;28;20103;-53
2022/09/16 11:43:52;;;;;;;7.20;2.40;;;16.90;99.90;;;;;;5070487;28;20108;-52
2022/09/16 11:46:33;;;;;;;3.10;1.98;;;16.90;99.90;;;;;;5069426;28;20651;-53
2022/09/16 11:49:22;;;;;;;5.47;2.30;;;17.00;99.90;;;;;;5072172;28;20108;-53
2022/09/16 11:52:03;;;;;;;4.65;2.22;;;17.10;99.90;;;;;;5070666;28;20479;-53
2022/09/16 11:54:47;;;;;;;2.80;2.00;;;17.00;99.90;;;;;;5071827;28;20033;-52
2022/09/16 11:57:18;;;;;;;5.72;2.60;;;16.80;99.90;;;;;;5070203;28;20027;-53
2022/09/16 11:59:43;;;;;;;4.90;2.72;;;16.90;99.90;;;;;;5069876;28;20123;-53
2022/09/16 12:03:02;;;;;;;6.70;2.63;;;16.90;99.90;;;;;;5069754;28;20123;-54
2022/09/16 12:05:41;;;;;;;5.28;1.77;;;16.90;99.90;;;;;;4987503;28;20464;-52
2022/09/16 12:08:21;;;;;;;3.05;1.90;;;16.90;99.90;;;;;;5060489;28;20032;-53
2022/09/16 12:11:06;;;;;;;5.22;2.15;;;16.90;99.90;;;;;;5070446;28;20649;-53
2022/09/16 12:13:43;;;;;;;10.85;2.35;;;16.70;99.90;;;;;;5070999;28;20072;-53
2022/09/16 12:16:16;;;;;;;4.03;2.17;;;16.70;99.90;;;;;;5071484;28;20102;-53
2022/09/16 12:18:48;;;;;;;9.20;2.53;;;16.50;99.90;;;;;;5071016;28;20058;-53
2022/09/16 12:21:33;;;;;;;4.95;2.15;;;16.40;99.90;;;;;;5071345;28;20112;-52
2022/09/16 12:24:24;;;;;;;3.03;2.13;;;16.30;99.90;;;;;;5071064;28;20082;-52
2022/09/16 12:27:10;;;;;;;4.55;2.22;;;16.30;99.90;;;;;;5033476;28;20044;-52
2022/09/16 12:30:00;;;;;;;4.82;2.60;;;16.20;99.90;;;;;;5069721;28;20027;-53
2022/09/16 12:32:34;;;;;;;2.90;1.98;;;16.30;99.90;;;;;;5069007;28;20697;-52
2022/09/16 12:35:13;;;;;;;4.90;2.85;;;16.30;99.90;;;;;;5068797;28;20055;-52
2022/09/16 12:37:49;;;;;;;28.70;11.55;;;16.30;99.90;;;;;;5069527;28;20153;-53
2022/09/16 12:40:51;;;;;;;14.73;6.32;;;16.20;99.90;;;;;;5071179;28;20056;-52
2022/09/16 12:43:38;;;;;;;11.27;5.15;;;16.40;99.90;;;;;;5070760;28;20749;-52
2022/09/16 12:46:07;;;;;;;10.38;3.85;;;16.40;99.90;;;;;;5070692;28;20041;-53
2022/09/16 12:48:45;;;;;;;7.88;3.55;;;16.50;99.90;;;;;;5070560;28;20028;-53
2022/09/16 12:51:29;;;;;;;7.43;3.58;;;16.40;99.90;;;;;;5070425;28;20028;-53
2022/09/16 12:54:01;;;;;;;6.43;3.75;;;16.50;99.90;;;;;;5070495;28;20491;-52
2022/09/16 12:56:39;;;;;;;9.20;3.58;;;16.50;99.90;;;;;;5070462;28;20094;-52
2022/09/16 12:59:11;;;;;;;;;;;16.60;99.90;;;;;;5071095;28;20032;-52
2022/09/16 13:01:42;;;;;;;9.07;2.65;;;16.80;99.90;;;;;;5070209;28;19908;-53
2022/09/16 13:04:38;;;;;;;7.00;2.40;;;17.20;99.90;;;;;;5069984;28;20029;-53
2022/09/16 13:07:05;;;;;;;5.93;2.08;;;17.10;99.90;;;;;;5070264;28;20413;-52
2022/09/16 13:09:37;;;;;;;9.17;2.07;;;16.90;99.90;;;;;;5070207;28;20069;-52
2022/09/16 13:12:06;;;;;;;4.82;1.83;;;16.80;99.90;;;;;;5070243;28;20032;-53
2022/09/16 13:14:44;;;;;;;4.05;2.10;;;16.80;99.90;;;;;;5069544;28;20798;-53